Hauptseite
METAR-TAF:

METAR-TAF

Flughäfen :

Bologna, Italien

Flughafen Bologna

Breite: 44-32N, Länge: 011-18E, Höhe: 36 m

Beobachtung

Neuester Wetterbericht von vor 35 Minuten, um 10:50 UTC
Wind 6 kt aus West/Nordwest
Temperatur 10°C
Luftfeuchtigkeit 87%
Luftdruck 1021 hPa
Sichtweite: 1800 m
Durchbrochene Bewölkung in der Höhe von 800 ft
feuchter Dunst

METAR: LIPE 231050Z 29006KT 1800 BR BKN008 10/08 Q1021

Zeit: 12:25 (11:25 UTC)

Prognose

Neuester Wetterbericht von vor 1 Stunde und 6 Minuten, um 10:19 UTC
Gültige Prognose vom 23 um 10 UTC bis 24 um 06 UTC
Wind 5 kt aus unterschiedlichen Richtungen
Sichtweite: 2000 m
Durchbrochene Bewölkung in der Höhe von 800 ft
feuchter Dunst
Übergehend zu
vom 23 um 17 UTC bis 23 um 20 UTC
Sichtweite: 0600 m
Durchbrochene Bewölkung in der Höhe von 300 ft
Nebelschwaden

TAF: LIPE 231019Z 2310/2406 VRB05KT 2000 BR BKN008 BECMG 2317/2320 0600 BCFG BKN003

Wetterbeobachtungen und Prognosen von mehr als 4000 Flughäfen (METAR und TAF Bericht).

Die verfügbaren Stationen werden durch gelbe und rote Markierungen auf der Karte dargestellt.

Führen Sie die Maus auf sie, um den Namen der Station zu sehen.

Darauf klicken, um die Beobachtung von Wetterbeobachtungen und Prognosen zu sehen.

Um die Karte zu ändern : klicken Sie auf den grünen Tasten mit einem schwarzen Kreuz Zum Vergrößern, auf den grünen Button mit einem Gedankenstrich zu verkleinern, oder auf die grünen Pfeile für benachbarte Karten.


METAR-TAF: